sensor_id;sensor_type;location;lat;lon;timestamp;pressure;altitude;pressure_sealevel;temperature;humidity
13612;BME280;6877;51.436;6.774;2022-07-29T00:01:57;101200.41;;;18.80;46.58
13612;BME280;6877;51.436;6.774;2022-07-29T00:04:28;101191.66;;;18.78;46.60
13612;BME280;6877;51.436;6.774;2022-07-29T00:07:00;101197.03;;;18.77;46.57
13612;BME280;6877;51.436;6.774;2022-07-29T00:09:26;101191.78;;;18.75;46.74
13612;BME280;6877;51.436;6.774;2022-07-29T00:12:00;101183.91;;;18.73;46.70
13612;BME280;6877;51.436;6.774;2022-07-29T00:14:31;101187.47;;;18.72;46.72
13612;BME280;6877;51.436;6.774;2022-07-29T00:17:03;101182.19;;;18.72;46.72
13612;BME280;6877;51.436;6.774;2022-07-29T00:19:29;101183.06;;;18.73;46.95
13612;BME280;6877;51.436;6.774;2022-07-29T00:22:01;101177.75;;;18.73;46.86
13612;BME280;6877;51.436;6.774;2022-07-29T00:24:32;101174.22;;;18.72;46.76
13612;BME280;6877;51.436;6.774;2022-07-29T00:27:04;101172.63;;;18.68;46.91
13612;BME280;6877;51.436;6.774;2022-07-29T00:29:35;101178.06;;;18.65;46.86
13612;BME280;6877;51.436;6.774;2022-07-29T00:32:07;101161.38;;;18.63;46.96
13612;BME280;6877;51.436;6.774;2022-07-29T00:34:33;101152.69;;;18.60;46.92
13612;BME280;6877;51.436;6.774;2022-07-29T00:37:23;101155.56;;;18.55;47.09
13612;BME280;6877;51.436;6.774;2022-07-29T00:39:55;101156.41;;;18.56;47.34
13612;BME280;6877;51.436;6.774;2022-07-29T00:42:26;101149.31;;;18.56;47.29
13612;BME280;6877;51.436;6.774;2022-07-29T00:44:53;101147.75;;;18.52;47.25
13612;BME280;6877;51.436;6.774;2022-07-29T00:47:25;101142.59;;;18.49;47.41
13612;BME280;6877;51.436;6.774;2022-07-29T00:49:56;101128.53;;;18.47;47.44
13612;BME280;6877;51.436;6.774;2022-07-29T00:52:28;101133.91;;;18.45;47.53
13612;BME280;6877;51.436;6.774;2022-07-29T00:55:00;101127.81;;;18.43;47.53
13612;BME280;6877;51.436;6.774;2022-07-29T00:57:31;101119.88;;;18.43;47.56
13612;BME280;6877;51.436;6.774;2022-07-29T00:59:58;101106.69;;;18.42;47.67
13612;BME280;6877;51.436;6.774;2022-07-29T01:02:30;101106.75;;;18.40;47.61
13612;BME280;6877;51.436;6.774;2022-07-29T01:05:02;101106.84;;;18.39;47.54
13612;BME280;6877;51.436;6.774;2022-07-29T01:07:36;101111.34;;;18.37;47.71
13612;BME280;6877;51.436;6.774;2022-07-29T01:10:09;101109.69;;;18.34;47.72
13612;BME280;6877;51.436;6.774;2022-07-29T01:12:43;101108.81;;;18.34;47.72
13612;BME280;6877;51.436;6.774;2022-07-29T01:15:15;101116.06;;;18.30;47.78
13612;BME280;6877;51.436;6.774;2022-07-29T01:30:02;101109.50;;;18.18;47.99
13612;BME280;6877;51.436;6.774;2022-07-29T01:32:15;101102.53;;;18.16;48.19
13612;BME280;6877;51.436;6.774;2022-07-29T01:34:58;101099.03;;;18.15;48.26
13612;BME280;6877;51.436;6.774;2022-07-29T01:40:52;101100.97;;;18.12;48.24
13612;BME280;6877;51.436;6.774;2022-07-29T01:43:32;101102.72;;;18.13;48.32
13612;BME280;6877;51.436;6.774;2022-07-29T01:46:09;101109.78;;;18.12;48.32
13612;BME280;6877;51.436;6.774;2022-07-29T01:48:56;101113.31;;;18.13;48.25
13612;BME280;6877;51.436;6.774;2022-07-29T01:51:34;101101.97;;;18.09;48.49
13612;BME280;6877;51.436;6.774;2022-07-29T01:56:55;101107.25;;;18.09;48.54
13612;BME280;6877;51.436;6.774;2022-07-29T01:59:29;101097.47;;;18.11;48.52
13612;BME280;6877;51.436;6.774;2022-07-29T02:02:02;101091.38;;;18.09;48.46
13612;BME280;6877;51.436;6.774;2022-07-29T02:04:28;101090.59;;;18.07;48.37
13612;BME280;6877;51.436;6.774;2022-07-29T02:07:04;101094.16;;;18.06;48.68
13612;BME280;6877;51.436;6.774;2022-07-29T02:09:37;101095.94;;;18.05;48.78
13612;BME280;6877;51.436;6.774;2022-07-29T02:12:07;101100.38;;;18.05;48.90
13612;BME280;6877;51.436;6.774;2022-07-29T02:14:47;101092.53;;;18.03;48.79
13612;BME280;6877;51.436;6.774;2022-07-29T02:17:28;101092.72;;;17.99;48.80
13612;BME280;6877;51.436;6.774;2022-07-29T02:20:03;101090.28;;;17.94;48.97
13612;BME280;6877;51.436;6.774;2022-07-29T02:22:37;101085.16;;;17.90;49.05
13612;BME280;6877;51.436;6.774;2022-07-29T02:25:10;101094.19;;;17.86;49.25
13612;BME280;6877;51.436;6.774;2022-07-29T02:27:44;101105.75;;;17.83;49.43
13612;BME280;6877;51.436;6.774;2022-07-29T02:30:11;101117.19;;;17.83;49.38
13612;BME280;6877;51.436;6.774;2022-07-29T02:32:45;101130.53;;;17.82;49.59
13612;BME280;6877;51.436;6.774;2022-07-29T02:35:18;101151.50;;;17.87;49.75
13612;BME280;6877;51.436;6.774;2022-07-29T02:37:52;101159.03;;;17.96;49.73
13612;BME280;6877;51.436;6.774;2022-07-29T02:40:43;101162.25;;;18.04;49.74
13612;BME280;6877;51.436;6.774;2022-07-29T02:43:15;101135.69;;;18.05;49.54
13612;BME280;6877;51.436;6.774;2022-07-29T02:45:51;101118.06;;;18.04;49.53
13612;BME280;6877;51.436;6.774;2022-07-29T02:48:36;101138.59;;;17.99;49.94
13612;BME280;6877;51.436;6.774;2022-07-29T02:51:07;101158.06;;;17.98;50.14
13612;BME280;6877;51.436;6.774;2022-07-29T02:53:41;101165.19;;;17.96;50.47
13612;BME280;6877;51.436;6.774;2022-07-29T02:56:16;101150.47;;;17.91;51.30
13612;BME280;6877;51.436;6.774;2022-07-29T02:58:56;101143.88;;;17.79;51.75
13612;BME280;6877;51.436;6.774;2022-07-29T03:01:31;101153.97;;;17.69;52.86
13612;BME280;6877;51.436;6.774;2022-07-29T03:04:04;101162.28;;;17.60;53.69
13612;BME280;6877;51.436;6.774;2022-07-29T03:06:37;101162.72;;;17.49;53.99
13612;BME280;6877;51.436;6.774;2022-07-29T03:09:10;101156.19;;;17.36;54.33
13612;BME280;6877;51.436;6.774;2022-07-29T03:11:43;101150.50;;;17.25;54.70
13612;BME280;6877;51.436;6.774;2022-07-29T03:14:17;101148.00;;;17.20;54.42
13612;BME280;6877;51.436;6.774;2022-07-29T03:16:49;101150.63;;;17.22;54.44
13612;BME280;6877;51.436;6.774;2022-07-29T03:19:22;101155.16;;;17.18;54.33
13612;BME280;6877;51.436;6.774;2022-07-29T03:21:56;101151.72;;;17.16;54.43
13612;BME280;6877;51.436;6.774;2022-07-29T03:24:32;101156.28;;;17.12;54.73
13612;BME280;6877;51.436;6.774;2022-07-29T03:27:04;101150.13;;;17.12;54.84
13612;BME280;6877;51.436;6.774;2022-07-29T03:29:36;101153.66;;;17.11;55.08
13612;BME280;6877;51.436;6.774;2022-07-29T03:32:04;101166.00;;;17.12;55.35
13612;BME280;6877;51.436;6.774;2022-07-29T03:34:36;101159.03;;;17.09;55.62
13612;BME280;6877;51.436;6.774;2022-07-29T03:37:08;101177.53;;;17.09;56.11
13612;BME280;6877;51.436;6.774;2022-07-29T03:39:41;101181.97;;;17.09;56.54
13612;BME280;6877;51.436;6.774;2022-07-29T03:42:11;101185.63;;;17.05;56.50
13612;BME280;6877;51.436;6.774;2022-07-29T03:44:47;101177.81;;;17.02;57.07
13612;BME280;6877;51.436;6.774;2022-07-29T03:47:23;101196.56;;;16.96;57.69
13612;BME280;6877;51.436;6.774;2022-07-29T03:50:00;101214.31;;;16.92;57.88
13612;BME280;6877;51.436;6.774;2022-07-29T03:52:28;101231.34;;;16.85;57.94
13612;BME280;6877;51.436;6.774;2022-07-29T03:54:59;101234.94;;;16.82;57.71
13612;BME280;6877;51.436;6.774;2022-07-29T03:57:32;101243.00;;;16.79;57.84
13612;BME280;6877;51.436;6.774;2022-07-29T04:00:04;101234.34;;;16.74;58.03
13612;BME280;6877;51.436;6.774;2022-07-29T04:02:37;101227.25;;;16.76;58.23
13612;BME280;6877;51.436;6.774;2022-07-29T04:05:11;101223.78;;;16.74;58.58
13612;BME280;6877;51.436;6.774;2022-07-29T04:07:44;101216.75;;;16.73;60.10
13612;BME280;6877;51.436;6.774;2022-07-29T04:10:17;101225.09;;;16.62;61.90
13612;BME280;6877;51.436;6.774;2022-07-29T04:12:49;101202.34;;;16.33;66.06
13612;BME280;6877;51.436;6.774;2022-07-29T04:15:20;101201.47;;;15.81;71.30
13612;BME280;6877;51.436;6.774;2022-07-29T04:17:52;101196.94;;;15.30;72.12
13612;BME280;6877;51.436;6.774;2022-07-29T04:20:23;101192.75;;;14.93;74.32
13612;BME280;6877;51.436;6.774;2022-07-29T04:22:55;101195.91;;;14.76;75.97
13612;BME280;6877;51.436;6.774;2022-07-29T04:25:26;101191.94;;;14.62;76.81
13612;BME280;6877;51.436;6.774;2022-07-29T04:27:53;101197.09;;;14.65;77.94
13612;BME280;6877;51.436;6.774;2022-07-29T04:30:34;101186.75;;;14.58;78.32
13612;BME280;6877;51.436;6.774;2022-07-29T04:33:07;101185.97;;;14.55;80.01
13612;BME280;6877;51.436;6.774;2022-07-29T04:35:38;101174.72;;;14.48;78.73
13612;BME280;6877;51.436;6.774;2022-07-29T04:38:10;101171.34;;;14.43;78.78
13612;BME280;6877;51.436;6.774;2022-07-29T04:40:36;101160.94;;;14.38;79.32
13612;BME280;6877;51.436;6.774;2022-07-29T04:43:08;101150.50;;;14.35;78.71
13612;BME280;6877;51.436;6.774;2022-07-29T04:45:39;101143.53;;;14.33;78.33
13612;BME280;6877;51.436;6.774;2022-07-29T04:48:11;101139.31;;;14.27;78.32
13612;BME280;6877;51.436;6.774;2022-07-29T04:50:42;101134.19;;;14.23;78.07
13612;BME280;6877;51.436;6.774;2022-07-29T04:53:15;101142.25;;;14.17;77.70
13612;BME280;6877;51.436;6.774;2022-07-29T04:55:41;101151.94;;;14.14;77.46
13612;BME280;6877;51.436;6.774;2022-07-29T04:58:13;101159.91;;;14.11;78.38
13612;BME280;6877;51.436;6.774;2022-07-29T05:00:44;101163.56;;;14.06;78.26
13612;BME280;6877;51.436;6.774;2022-07-29T05:03:16;101166.16;;;14.07;78.63
13612;BME280;6877;51.436;6.774;2022-07-29T05:05:48;101175.84;;;14.05;79.06
13612;BME280;6877;51.436;6.774;2022-07-29T05:08:19;101175.06;;;14.03;78.75
13612;BME280;6877;51.436;6.774;2022-07-29T05:10:51;101179.47;;;14.01;78.97
13612;BME280;6877;51.436;6.774;2022-07-29T05:13:22;101189.94;;;14.04;78.98
13612;BME280;6877;51.436;6.774;2022-07-29T05:15:54;101177.59;;;14.06;79.79
13612;BME280;6877;51.436;6.774;2022-07-29T05:18:25;101175.00;;;14.05;79.16
13612;BME280;6877;51.436;6.774;2022-07-29T05:20:57;101179.44;;;14.03;79.39
13612;BME280;6877;51.436;6.774;2022-07-29T05:23:23;101183.03;;;14.00;78.62
13612;BME280;6877;51.436;6.774;2022-07-29T05:25:55;101186.53;;;13.99;77.93
13612;BME280;6877;51.436;6.774;2022-07-29T05:28:26;101192.72;;;13.98;78.53
13612;BME280;6877;51.436;6.774;2022-07-29T05:30:58;101193.56;;;13.99;79.11
13612;BME280;6877;51.436;6.774;2022-07-29T05:33:29;101179.47;;;14.01;80.19
13612;BME280;6877;51.436;6.774;2022-07-29T05:36:01;101174.16;;;14.04;79.86
13612;BME280;6877;51.436;6.774;2022-07-29T05:38:28;101162.59;;;14.10;80.30
13612;BME280;6877;51.436;6.774;2022-07-29T05:41:00;101156.41;;;14.12;80.38
13612;BME280;6877;51.436;6.774;2022-07-29T05:43:31;101151.06;;;14.16;80.62
13612;BME280;6877;51.436;6.774;2022-07-29T05:46:03;101163.28;;;14.17;79.90
13612;BME280;6877;51.436;6.774;2022-07-29T05:48:29;101176.63;;;14.10;79.72
13612;BME280;6877;51.436;6.774;2022-07-29T05:51:01;101188.88;;;14.11;79.88
13612;BME280;6877;51.436;6.774;2022-07-29T05:53:33;101182.66;;;14.14;79.89
13612;BME280;6877;51.436;6.774;2022-07-29T05:56:04;101165.94;;;14.15;80.12
13612;BME280;6877;51.436;6.774;2022-07-29T05:58:36;101147.53;;;14.15;80.50
13612;BME280;6877;51.436;6.774;2022-07-29T06:01:08;101133.47;;;14.16;79.67
13612;BME280;6877;51.436;6.774;2022-07-29T06:03:39;101141.94;;;14.27;78.64
13612;BME280;6877;51.436;6.774;2022-07-29T06:06:12;101141.84;;;14.30;77.98
13612;BME280;6877;51.436;6.774;2022-07-29T06:08:43;101152.28;;;14.35;78.07
13612;BME280;6877;51.436;6.774;2022-07-29T06:11:15;101156.53;;;14.39;78.27
13612;BME280;6877;51.436;6.774;2022-07-29T06:13:46;101155.53;;;14.43;78.00
13612;BME280;6877;51.436;6.774;2022-07-29T06:16:18;101158.00;;;14.49;78.30
13612;BME280;6877;51.436;6.774;2022-07-29T06:18:50;101153.44;;;14.56;78.57
13612;BME280;6877;51.436;6.774;2022-07-29T06:21:21;101151.47;;;14.64;77.21
13612;BME280;6877;51.436;6.774;2022-07-29T06:23:53;101139.72;;;14.76;76.62
13612;BME280;6877;51.436;6.774;2022-07-29T06:26:19;101148.03;;;14.92;76.98
13612;BME280;6877;51.436;6.774;2022-07-29T06:28:51;101145.50;;;15.17;76.36
13612;BME280;6877;51.436;6.774;2022-07-29T06:31:22;101146.56;;;15.38;74.65
13612;BME280;6877;51.436;6.774;2022-07-29T06:33:53;101151.16;;;15.59;74.80
13612;BME280;6877;51.436;6.774;2022-07-29T06:36:25;101150.41;;;15.82;74.00
13612;BME280;6877;51.436;6.774;2022-07-29T06:38:56;101164.63;;;16.05;72.59
13612;BME280;6877;51.436;6.774;2022-07-29T06:41:23;101163.97;;;16.23;71.79
13612;BME280;6877;51.436;6.774;2022-07-29T06:43:49;101166.28;;;16.32;71.77
13612;BME280;6877;51.436;6.774;2022-07-29T06:46:22;101167.09;;;16.34;70.96
13612;BME280;6877;51.436;6.774;2022-07-29T06:48:54;101168.91;;;16.32;71.02
13612;BME280;6877;51.436;6.774;2022-07-29T06:51:25;101172.63;;;16.27;70.88
13612;BME280;6877;51.436;6.774;2022-07-29T06:53:58;101195.97;;;16.14;71.12
13612;BME280;6877;51.436;6.774;2022-07-29T06:56:31;101210.28;;;16.07;71.33
13612;BME280;6877;51.436;6.774;2022-07-29T06:59:04;101222.81;;;16.02;70.97
13612;BME280;6877;51.436;6.774;2022-07-29T07:01:37;101234.31;;;15.99;71.50
13612;BME280;6877;51.436;6.774;2022-07-29T07:04:09;101239.59;;;15.99;71.37
13612;BME280;6877;51.436;6.774;2022-07-29T07:06:41;101251.88;;;16.00;71.45
13612;BME280;6877;51.436;6.774;2022-07-29T07:09:07;101256.41;;;15.96;71.66
13612;BME280;6877;51.436;6.774;2022-07-29T07:11:34;101257.22;;;15.98;71.80
13612;BME280;6877;51.436;6.774;2022-07-29T07:14:05;101259.66;;;16.05;71.93
13612;BME280;6877;51.436;6.774;2022-07-29T07:16:37;101254.22;;;16.09;72.02
13612;BME280;6877;51.436;6.774;2022-07-29T07:19:08;101249.69;;;16.13;71.82
13612;BME280;6877;51.436;6.774;2022-07-29T07:21:40;101255.63;;;16.19;71.98
13612;BME280;6877;51.436;6.774;2022-07-29T07:24:07;101261.66;;;16.23;71.50
13612;BME280;6877;51.436;6.774;2022-07-29T07:26:38;101269.38;;;16.29;71.14
13612;BME280;6877;51.436;6.774;2022-07-29T07:29:11;101268.28;;;16.36;71.06
13612;BME280;6877;51.436;6.774;2022-07-29T07:31:42;101261.97;;;16.40;70.44
13612;BME280;6877;51.436;6.774;2022-07-29T07:34:14;101260.00;;;16.45;70.85
13612;BME280;6877;51.436;6.774;2022-07-29T07:36:46;101263.38;;;16.51;70.09
13612;BME280;6877;51.436;6.774;2022-07-29T07:39:17;101261.47;;;16.54;69.79
13612;BME280;6877;51.436;6.774;2022-07-29T07:41:48;101262.41;;;16.53;69.67
13612;BME280;6877;51.436;6.774;2022-07-29T07:44:15;101249.41;;;16.47;69.69
13612;BME280;6877;51.436;6.774;2022-07-29T07:46:46;101253.09;;;16.43;69.83
13612;BME280;6877;51.436;6.774;2022-07-29T07:49:18;101248.81;;;16.39;69.71
13612;BME280;6877;51.436;6.774;2022-07-29T07:51:49;101255.75;;;16.41;69.77
13612;BME280;6877;51.436;6.774;2022-07-29T07:54:21;101256.69;;;16.40;71.32
13612;BME280;6877;51.436;6.774;2022-07-29T07:56:52;101249.91;;;16.33;70.91
13612;BME280;6877;51.436;6.774;2022-07-29T07:59:24;101252.00;;;16.24;72.56
13612;BME280;6877;51.436;6.774;2022-07-29T08:01:55;101243.56;;;16.12;74.31
13612;BME280;6877;51.436;6.774;2022-07-29T08:04:27;101242.28;;;15.97;74.62
13612;BME280;6877;51.436;6.774;2022-07-29T08:06:59;101247.06;;;15.86;75.41
13612;BME280;6877;51.436;6.774;2022-07-29T08:09:31;101255.38;;;15.74;75.82
13612;BME280;6877;51.436;6.774;2022-07-29T08:11:59;101259.31;;;15.59;77.40
13612;BME280;6877;51.436;6.774;2022-07-29T08:14:31;101254.50;;;15.45;76.99
13612;BME280;6877;51.436;6.774;2022-07-29T08:17:02;101249.69;;;15.30;78.93
13612;BME280;6877;51.436;6.774;2022-07-29T08:19:29;101249.09;;;15.20;79.18
13612;BME280;6877;51.436;6.774;2022-07-29T08:21:55;101248.41;;;15.14;80.04
13612;BME280;6877;51.436;6.774;2022-07-29T08:24:27;101246.84;;;15.06;80.57
13612;BME280;6877;51.436;6.774;2022-07-29T08:27:13;101243.41;;;15.04;82.07
13612;BME280;6877;51.436;6.774;2022-07-29T08:29:45;101245.97;;;15.06;81.93
13612;BME280;6877;51.436;6.774;2022-07-29T08:32:16;101241.47;;;15.10;82.05
13612;BME280;6877;51.436;6.774;2022-07-29T08:34:48;101242.16;;;15.16;82.72
13612;BME280;6877;51.436;6.774;2022-07-29T08:37:19;101241.94;;;15.24;82.52
13612;BME280;6877;51.436;6.774;2022-07-29T08:39:51;101247.88;;;15.32;82.94
13612;BME280;6877;51.436;6.774;2022-07-29T08:42:18;101247.28;;;15.50;82.64
13612;BME280;6877;51.436;6.774;2022-07-29T08:44:49;101250.28;;;15.68;82.04
13612;BME280;6877;51.436;6.774;2022-07-29T08:47:21;101256.59;;;15.90;81.52
13612;BME280;6877;51.436;6.774;2022-07-29T08:49:53;101251.50;;;16.11;81.12
13612;BME280;6877;51.436;6.774;2022-07-29T08:52:20;101253.63;;;16.26;80.62
13612;BME280;6877;51.436;6.774;2022-07-29T08:54:53;101257.97;;;16.54;81.69
13612;BME280;6877;51.436;6.774;2022-07-29T08:57:25;101252.16;;;16.94;81.10
13612;BME280;6877;51.436;6.774;2022-07-29T08:59:58;101252.31;;;17.13;80.32
13612;BME280;6877;51.436;6.774;2022-07-29T09:02:35;101255.78;;;17.15;79.11
13612;BME280;6877;51.436;6.774;2022-07-29T09:05:10;101251.41;;;17.14;79.04
13612;BME280;6877;51.436;6.774;2022-07-29T09:07:41;101255.25;;;17.05;77.34
13612;BME280;6877;51.436;6.774;2022-07-29T09:10:14;101254.72;;;16.96;76.33
13612;BME280;6877;51.436;6.774;2022-07-29T09:12:46;101251.53;;;16.87;75.88
13612;BME280;6877;51.436;6.774;2022-07-29T09:15:17;101248.81;;;16.89;77.23
13612;BME280;6877;51.436;6.774;2022-07-29T09:17:49;101253.00;;;16.95;76.53
13612;BME280;6877;51.436;6.774;2022-07-29T09:20:21;101251.09;;;16.98;76.21
13612;BME280;6877;51.436;6.774;2022-07-29T09:22:54;101247.16;;;17.10;77.41
13612;BME280;6877;51.436;6.774;2022-07-29T09:30:53;101243.72;;;17.30;75.27
13612;BME280;6877;51.436;6.774;2022-07-29T09:33:31;101233.91;;;17.33;74.78
13612;BME280;6877;51.436;6.774;2022-07-29T09:36:09;101236.19;;;17.43;75.01
13612;BME280;6877;51.436;6.774;2022-07-29T09:38:40;101224.69;;;17.44;74.41
13612;BME280;6877;51.436;6.774;2022-07-29T09:41:12;101224.31;;;17.31;75.10
13612;BME280;6877;51.436;6.774;2022-07-29T09:43:40;101225.34;;;17.27;76.87
13612;BME280;6877;51.436;6.774;2022-07-29T09:46:13;101227.25;;;17.23;76.98
13612;BME280;6877;51.436;6.774;2022-07-29T09:48:44;101228.72;;;17.30;78.03
13612;BME280;6877;51.436;6.774;2022-07-29T09:51:20;101226.78;;;17.35;77.36
13612;BME280;6877;51.436;6.774;2022-07-29T09:53:52;101228.25;;;17.43;77.88
13612;BME280;6877;51.436;6.774;2022-07-29T09:56:18;101235.03;;;17.50;77.13
13612;BME280;6877;51.436;6.774;2022-07-29T09:59:05;101229.34;;;17.59;77.51
13612;BME280;6877;51.436;6.774;2022-07-29T10:01:37;101228.09;;;17.69;77.15
13612;BME280;6877;51.436;6.774;2022-07-29T10:04:09;101229.22;;;17.62;75.74
13612;BME280;6877;51.436;6.774;2022-07-29T10:07:00;101229.66;;;17.51;76.05
13612;BME280;6877;51.436;6.774;2022-07-29T10:09:32;101225.47;;;17.46;75.50
13612;BME280;6877;51.436;6.774;2022-07-29T10:14:40;101219.66;;;17.59;75.59
13612;BME280;6877;51.436;6.774;2022-07-29T10:17:12;101228.28;;;17.87;76.08
13612;BME280;6877;51.436;6.774;2022-07-29T10:19:44;101226.00;;;18.20;74.85
13612;BME280;6877;51.436;6.774;2022-07-29T10:22:16;101217.25;;;18.59;74.64
13612;BME280;6877;51.436;6.774;2022-07-29T10:24:48;101223.34;;;19.00;73.01
13612;BME280;6877;51.436;6.774;2022-07-29T10:27:19;101226.34;;;19.49;72.59
13612;BME280;6877;51.436;6.774;2022-07-29T10:29:51;101222.78;;;20.04;70.79
13612;BME280;6877;51.436;6.774;2022-07-29T10:32:31;101223.78;;;20.71;66.52
13612;BME280;6877;51.436;6.774;2022-07-29T10:35:17;101223.50;;;22.48;65.26
13612;BME280;6877;51.436;6.774;2022-07-29T10:41:24;101234.53;;;24.49;54.83
13612;BME280;6877;51.436;6.774;2022-07-29T10:44:05;101240.09;;;25.47;52.10
13612;BME280;6877;51.436;6.774;2022-07-29T10:46:39;101242.47;;;25.62;51.17
13612;BME280;6877;51.436;6.774;2022-07-29T11:05:07;101233.41;;;28.03;38.72
13612;BME280;6877;51.436;6.774;2022-07-29T11:10:53;101232.41;;;31.92;33.59
13612;BME280;6877;51.436;6.774;2022-07-29T11:14:00;101239.94;;;33.03;29.92
13612;BME280;6877;51.436;6.774;2022-07-29T11:17:00;101232.56;;;33.29;28.80
13612;BME280;6877;51.436;6.774;2022-07-29T11:19:33;101235.03;;;32.72;29.33
13612;BME280;6877;51.436;6.774;2022-07-29T11:22:07;101232.03;;;33.17;29.10
13612;BME280;6877;51.436;6.774;2022-07-29T11:24:39;101233.94;;;32.13;28.38
13612;BME280;6877;51.436;6.774;2022-07-29T11:29:58;101235.50;;;31.97;29.71
13612;BME280;6877;51.436;6.774;2022-07-29T11:32:40;101237.56;;;31.68;30.50
13612;BME280;6877;51.436;6.774;2022-07-29T11:41:25;101240.25;;;28.70;36.45
13612;BME280;6877;51.436;6.774;2022-07-29T11:43:56;101235.56;;;27.77;38.32
13612;BME280;6877;51.436;6.774;2022-07-29T11:46:49;101240.41;;;27.62;39.42
13612;BME280;6877;51.436;6.774;2022-07-29T11:51:53;101246.53;;;26.63;40.98
13612;BME280;6877;51.436;6.774;2022-07-29T11:54:31;101247.53;;;25.91;42.43
13612;BME280;6877;51.436;6.774;2022-07-29T11:57:06;101246.06;;;25.87;42.71
13612;BME280;6877;51.436;6.774;2022-07-29T11:59:43;101250.03;;;25.57;43.18
13612;BME280;6877;51.436;6.774;2022-07-29T12:02:15;101241.28;;;25.42;43.53
13612;BME280;6877;51.436;6.774;2022-07-29T12:04:54;101235.75;;;25.33;43.33
13612;BME280;6877;51.436;6.774;2022-07-29T12:07:30;101241.97;;;25.33;43.67
13612;BME280;6877;51.436;6.774;2022-07-29T12:10:04;101240.28;;;25.07;43.92
13612;BME280;6877;51.436;6.774;2022-07-29T12:12:37;101236.47;;;24.72;44.84
13612;BME280;6877;51.436;6.774;2022-07-29T12:15:23;101250.78;;;24.59;45.07
13612;BME280;6877;51.436;6.774;2022-07-29T12:17:55;101239.09;;;24.34;45.33
13612;BME280;6877;51.436;6.774;2022-07-29T12:20:29;101243.69;;;24.19;45.69
13612;BME280;6877;51.436;6.774;2022-07-29T12:23:05;101238.38;;;24.05;45.76
13612;BME280;6877;51.436;6.774;2022-07-29T12:25:33;101240.19;;;23.92;45.72
13612;BME280;6877;51.436;6.774;2022-07-29T12:28:09;101247.31;;;23.64;45.56
13612;BME280;6877;51.436;6.774;2022-07-29T12:35:51;101248.94;;;23.81;45.43
13612;BME280;6877;51.436;6.774;2022-07-29T12:38:24;101253.25;;;23.96;44.67
13612;BME280;6877;51.436;6.774;2022-07-29T12:40:56;101246.78;;;23.86;44.95
13612;BME280;6877;51.436;6.774;2022-07-29T12:43:24;101253.53;;;23.92;45.32
13612;BME280;6877;51.436;6.774;2022-07-29T12:45:56;101250.69;;;24.08;44.74
13612;BME280;6877;51.436;6.774;2022-07-29T12:48:34;101248.81;;;24.22;44.27
13612;BME280;6877;51.436;6.774;2022-07-29T12:51:08;101248.03;;;24.47;43.91
13612;BME280;6877;51.436;6.774;2022-07-29T12:53:40;101243.16;;;24.40;43.54
13612;BME280;6877;51.436;6.774;2022-07-29T12:56:15;101249.47;;;24.26;44.10
13612;BME280;6877;51.436;6.774;2022-07-29T12:58:47;101243.69;;;24.32;44.28
13612;BME280;6877;51.436;6.774;2022-07-29T13:01:19;101246.97;;;24.50;43.81
13612;BME280;6877;51.436;6.774;2022-07-29T13:03:54;101243.94;;;24.93;42.61
13612;BME280;6877;51.436;6.774;2022-07-29T13:14:36;101250.59;;;25.00;41.97
13612;BME280;6877;51.436;6.774;2022-07-29T13:17:20;101248.75;;;24.49;44.10
13612;BME280;6877;51.436;6.774;2022-07-29T13:20:05;101249.31;;;24.42;44.29
13612;BME280;6877;51.436;6.774;2022-07-29T13:22:37;101251.38;;;24.24;44.56
13612;BME280;6877;51.436;6.774;2022-07-29T13:25:09;101251.38;;;24.37;44.31
13612;BME280;6877;51.436;6.774;2022-07-29T13:27:40;101259.56;;;24.48;44.27
13612;BME280;6877;51.436;6.774;2022-07-29T13:30:12;101257.34;;;24.67;44.06
13612;BME280;6877;51.436;6.774;2022-07-29T13:32:43;101253.34;;;25.11;42.63
13612;BME280;6877;51.436;6.774;2022-07-29T13:35:15;101258.47;;;25.64;41.97
13612;BME280;6877;51.436;6.774;2022-07-29T13:37:47;101253.63;;;25.93;40.82
13612;BME280;6877;51.436;6.774;2022-07-29T13:40:19;101249.75;;;25.73;41.25
13612;BME280;6877;51.436;6.774;2022-07-29T13:42:51;101248.47;;;25.66;41.14
13612;BME280;6877;51.436;6.774;2022-07-29T13:45:23;101244.44;;;25.84;40.98
13612;BME280;6877;51.436;6.774;2022-07-29T13:47:54;101243.50;;;25.85;40.04
13612;BME280;6877;51.436;6.774;2022-07-29T13:50:25;101248.91;;;25.73;40.84
13612;BME280;6877;51.436;6.774;2022-07-29T13:52:57;101248.69;;;25.39;41.38
13612;BME280;6877;51.436;6.774;2022-07-29T13:55:29;101238.03;;;25.50;40.82
13612;BME280;6877;51.436;6.774;2022-07-29T13:58:00;101244.59;;;25.46;40.09
13612;BME280;6877;51.436;6.774;2022-07-29T14:00:31;101240.13;;;25.34;39.51
13612;BME280;6877;51.436;6.774;2022-07-29T14:03:03;101237.50;;;25.21;39.84
13612;BME280;6877;51.436;6.774;2022-07-29T14:05:34;101232.13;;;25.21;39.73
13612;BME280;6877;51.436;6.774;2022-07-29T14:08:06;101233.84;;;25.09;40.27
13612;BME280;6877;51.436;6.774;2022-07-29T14:10:38;101231.31;;;24.95;40.95
13612;BME280;6877;51.436;6.774;2022-07-29T14:13:09;101227.78;;;24.94;40.81
13612;BME280;6877;51.436;6.774;2022-07-29T14:15:41;101236.31;;;25.00;40.77
13612;BME280;6877;51.436;6.774;2022-07-29T14:18:12;101231.91;;;25.11;39.99
13612;BME280;6877;51.436;6.774;2022-07-29T14:20:39;101233.09;;;25.20;39.69
13612;BME280;6877;51.436;6.774;2022-07-29T14:23:10;101232.25;;;25.07;39.59
13612;BME280;6877;51.436;6.774;2022-07-29T14:25:42;101228.94;;;24.90;39.84
13612;BME280;6877;51.436;6.774;2022-07-29T14:28:13;101225.75;;;24.72;40.34
13612;BME280;6877;51.436;6.774;2022-07-29T14:30:45;101229.38;;;24.59;40.65
13612;BME280;6877;51.436;6.774;2022-07-29T14:33:16;101223.19;;;24.71;40.52
13612;BME280;6877;51.436;6.774;2022-07-29T14:35:48;101226.59;;;24.86;39.73
13612;BME280;6877;51.436;6.774;2022-07-29T14:38:19;101223.81;;;24.87;39.71
13612;BME280;6877;51.436;6.774;2022-07-29T14:40:51;101222.22;;;24.85;39.65
13612;BME280;6877;51.436;6.774;2022-07-29T14:43:22;101225.06;;;25.07;39.66